Terminal Aerodrome Forecast
Issued by NWS Sterling, VA

Home | Current Version | Previous Version | Text Only | Print | Product List | Glossary On
Versions: 1 2 3 4 5 6 7 8 9 10 11 12 13 14
845
FTUS41 KLWX 042343
TAFMRB
TAF
KMRB 042343Z 0500/0524 14004KT P6SM OVC080
     FM050200 16005KT 5SM -RAPL BR OVC040
     FM050600 18005KT P6SM -RA OVC010
     FM050900 19005KT P6SM OVC008
     FM051300 24005KT P6SM OVC020
     FM051600 29010KT P6SM BKN040
     FM052000 31009KT P6SM SCT250=

USA.gov is the U.S. government's official web portal to all federal, state and local government web resources and services.